createdAt,value
2022-11-29T00:02:44.066Z,99896.22
2022-11-29T00:05:35.144Z,99655.22
2022-11-29T00:08:25.242Z,99894.78
2022-11-29T00:11:35.327Z,99877.03
2022-11-29T00:14:24.573Z,99901.75
2022-11-29T00:17:12.985Z,99887.34
2022-11-29T00:20:01.405Z,99894.31
2022-11-29T00:22:49.895Z,99894.78
2022-11-29T00:25:40.496Z,99875.78
2022-11-29T00:28:28.953Z,99897.19
2022-11-29T00:31:19.652Z,99891.47
2022-11-29T00:34:08.223Z,99894.31
2022-11-29T00:36:56.833Z,99893.28
2022-11-29T00:39:45.331Z,99894.97
2022-11-29T00:42:35.155Z,99894.00
2022-11-29T00:45:23.605Z,99894.19
2022-11-29T00:48:12.071Z,99892.53
2022-11-29T00:51:00.718Z,99865.09
2022-11-29T00:53:49.157Z,99899.53
2022-11-29T00:56:37.591Z,99903.59
2022-11-29T00:59:27.345Z,99900.94
2022-11-29T01:02:15.788Z,99901.97
2022-11-29T01:05:04.338Z,99905.28
2022-11-29T01:07:52.854Z,99906.13
2022-11-29T01:10:41.797Z,99904.50
2022-11-29T01:13:30.272Z,99907.50
2022-11-29T01:16:20.234Z,99914.94
2022-11-29T01:19:08.688Z,99914.09
2022-11-29T01:21:57.129Z,99913.91
2022-11-29T01:24:45.852Z,99908.94
2022-11-29T01:27:34.997Z,99912.31
2022-11-29T01:30:23.443Z,99905.50
2022-11-29T01:33:13.220Z,99916.00
2022-11-29T01:36:01.678Z,99908.41
2022-11-29T01:38:50.147Z,99911.69
2022-11-29T01:41:38.900Z,99902.63
2022-11-29T01:45:07.802Z,99905.56
2022-11-29T01:47:57.722Z,99904.78
2022-11-29T01:50:47.570Z,99915.28
2022-11-29T01:53:36.050Z,99908.22
2022-11-29T01:56:25.510Z,99911.28
2022-11-29T01:59:17.087Z,99915.59
2022-11-29T02:02:07.739Z,99915.78
2022-11-29T02:04:56.227Z,99913.50
2022-11-29T02:07:47.857Z,99910.84
2022-11-29T02:10:44.471Z,99908.63
2022-11-29T02:13:38.938Z,99914.53
2022-11-29T02:16:35.408Z,99907.94
2022-11-29T02:19:40.600Z,99908.75
2022-11-29T02:22:33.461Z,99915.00
2022-11-29T02:25:36.708Z,99909.22
2022-11-29T02:28:58.225Z,99906.91
2022-11-29T02:32:25.229Z,99913.69
2022-11-29T02:35:24.539Z,99905.28
2022-11-29T02:38:26.242Z,99909.19
2022-11-29T02:41:27.570Z,99909.19
2022-11-29T02:44:41.265Z,99907.78
2022-11-29T02:47:38.828Z,99902.44
2022-11-29T02:50:36.037Z,99893.56
2022-11-29T02:53:30.673Z,99892.63
2022-11-29T02:56:28.508Z,99914.94
2022-11-29T02:59:24.694Z,99915.31
2022-11-29T03:02:19.500Z,99921.91
2022-11-29T03:05:16.965Z,99910.63
2022-11-29T03:08:12.129Z,99917.84
2022-11-29T03:11:05.825Z,99921.91
2022-11-29T03:14:07.649Z,99887.22
2022-11-29T03:17:04.599Z,99914.94
2022-11-29T03:20:05.370Z,99928.53
2022-11-29T03:23:06.145Z,99924.84
2022-11-29T03:25:59.242Z,99938.59
2022-11-29T03:28:52.964Z,99939.25
2022-11-29T03:31:46.178Z,99928.28
2022-11-29T03:34:46.343Z,99937.94
2022-11-29T03:37:40.898Z,99940.44
2022-11-29T03:40:40.097Z,99938.44
2022-11-29T03:43:33.546Z,99938.41
2022-11-29T03:46:26.250Z,99919.59
2022-11-29T03:49:20.319Z,99943.75
2022-11-29T03:52:16.362Z,99937.16
2022-11-29T03:55:19.393Z,99952.34
2022-11-29T03:58:19.255Z,99951.09
2022-11-29T04:01:33.824Z,99950.25
2022-11-29T04:04:55.397Z,99953.19
2022-11-29T04:08:04.564Z,99954.81
2022-11-29T04:11:06.221Z,99939.56
2022-11-29T04:14:10.951Z,99945.78
2022-11-29T04:17:43.198Z,99946.22
2022-11-29T04:21:07.527Z,99955.06
2022-11-29T04:24:13.495Z,99958.53
2022-11-29T04:27:30.956Z,99972.31
2022-11-29T04:30:22.845Z,99937.34
2022-11-29T04:33:31.133Z,99969.22
2022-11-29T04:36:56.554Z,99976.00
2022-11-29T04:39:58.869Z,99972.56
2022-11-29T04:43:11.634Z,99984.47
2022-11-29T04:46:17.437Z,99988.53
2022-11-29T04:49:22.184Z,99982.78
2022-11-29T04:52:33.965Z,99990.97
2022-11-29T04:55:33.294Z,99990.03
2022-11-29T04:58:26.555Z,99995.09
2022-11-29T05:01:24.450Z,99990.06
2022-11-29T05:04:18.498Z,99995.50
2022-11-29T05:07:10.378Z,99940.28
2022-11-29T05:10:04.949Z,99972.59
2022-11-29T05:12:59.252Z,100000.84
2022-11-29T05:16:13.678Z,99999.19
2022-11-29T05:19:17.520Z,100007.44
2022-11-29T05:22:19.498Z,100012.16
2022-11-29T05:25:27.020Z,100012.09
2022-11-29T05:28:20.329Z,100019.09
2022-11-29T05:31:26.905Z,100018.19
2022-11-29T05:34:35.231Z,100022.22
2022-11-29T05:37:31.933Z,100020.94
2022-11-29T05:40:42.127Z,100017.69
2022-11-29T05:43:46.680Z,100003.19
2022-11-29T05:46:40.934Z,100024.63
2022-11-29T05:49:37.845Z,100023.44
2022-11-29T05:52:32.885Z,100026.03
2022-11-29T05:55:28.700Z,100030.34
2022-11-29T05:58:28.591Z,100024.88
2022-11-29T06:01:22.997Z,100035.56
2022-11-29T06:04:15.302Z,100037.94
2022-11-29T06:07:11.536Z,100034.16
2022-11-29T06:10:02.386Z,100035.00
2022-11-29T06:13:00.203Z,100029.09
2022-11-29T06:16:28.275Z,100024.47
2022-11-29T06:19:46.951Z,100045.00
2022-11-29T06:22:50.581Z,100016.50
2022-11-29T06:25:49.222Z,100053.78
2022-11-29T06:28:45.664Z,100060.75
2022-11-29T06:31:38.515Z,100063.44
2022-11-29T06:34:31.568Z,100065.69
2022-11-29T06:37:24.509Z,100061.97
2022-11-29T06:40:16.791Z,100061.78
2022-11-29T06:43:05.766Z,100065.50
2022-11-29T06:45:58.642Z,100059.88
2022-11-29T06:48:51.348Z,100068.53
2022-11-29T06:51:48.481Z,100071.22
2022-11-29T06:54:44.630Z,100075.91
2022-11-29T06:57:44.500Z,100071.22
2022-11-29T07:00:39.430Z,100071.41
2022-11-29T07:03:44.476Z,100082.72
2022-11-29T07:06:33.243Z,100085.19
2022-11-29T07:09:24.174Z,100088.69
2022-11-29T07:12:13.483Z,100086.25
2022-11-29T07:15:04.025Z,100083.91
2022-11-29T07:18:05.632Z,100100.03
2022-11-29T07:21:01.681Z,100081.25
2022-11-29T07:23:54.638Z,100097.03
2022-11-29T07:26:49.186Z,100102.94
2022-11-29T07:29:42.063Z,100095.69
2022-11-29T07:32:39.548Z,100102.94
2022-11-29T07:35:34.995Z,100074.59
2022-11-29T07:38:30.810Z,100110.22
2022-11-29T07:41:22.369Z,100117.00
2022-11-29T07:44:14.158Z,100108.69
2022-11-29T07:47:02.726Z,100107.75
2022-11-29T07:49:52.684Z,100115.69
2022-11-29T07:52:41.152Z,100118.13
2022-11-29T07:55:30.062Z,100123.00
2022-11-29T07:58:19.497Z,100113.56
2022-11-29T08:01:08.437Z,100124.91
2022-11-29T08:03:56.965Z,100116.53
2022-11-29T08:06:47.120Z,100074.88
2022-11-29T08:09:35.574Z,100125.16
2022-11-29T08:12:24.052Z,100124.53
2022-11-29T08:15:13.316Z,100126.38
2022-11-29T08:18:02.713Z,100133.75
2022-11-29T08:20:51.188Z,100140.13
2022-11-29T08:23:40.964Z,100135.41
2022-11-29T08:26:31.937Z,100138.47
2022-11-29T08:29:20.705Z,100143.81
2022-11-29T08:32:09.969Z,100142.38
2022-11-29T08:34:58.577Z,100149.53
2022-11-29T08:37:47.145Z,100156.09
2022-11-29T08:40:36.980Z,100157.94
2022-11-29T08:43:25.472Z,100156.81
2022-11-29T08:46:18.580Z,100125.53
2022-11-29T08:49:07.538Z,100172.38
2022-11-29T08:52:16.196Z,100166.13
2022-11-29T08:55:03.947Z,100173.97
2022-11-29T08:57:55.178Z,100172.31
2022-11-29T09:00:45.474Z,100169.75
2022-11-29T09:03:51.863Z,100176.56
2022-11-29T09:06:42.828Z,100176.88
2022-11-29T09:09:32.056Z,100170.97
2022-11-29T09:12:20.544Z,100184.88
2022-11-29T09:15:11.694Z,100194.75
2022-11-29T09:18:00.193Z,100176.13
2022-11-29T09:20:48.634Z,100198.81
2022-11-29T09:23:37.320Z,100203.13
2022-11-29T09:26:27.297Z,100204.16
2022-11-29T09:29:16.914Z,100199.53
2022-11-29T09:32:07.374Z,100204.75
2022-11-29T09:34:55.946Z,100214.34
2022-11-29T09:37:44.478Z,100216.38
2022-11-29T09:40:35.191Z,100215.38
2022-11-29T09:43:28.721Z,100219.69
2022-11-29T09:46:21.196Z,100220.69
2022-11-29T09:49:30.342Z,100217.50
2022-11-29T09:52:26.216Z,100235.63
2022-11-29T09:55:38.956Z,100219.44
2022-11-29T09:58:31.294Z,100218.22
2022-11-29T10:01:22.860Z,100214.91
2022-11-29T10:04:14.817Z,100228.34
2022-11-29T10:07:07.979Z,100230.97
2022-11-29T10:09:59.412Z,100234.25
2022-11-29T10:12:50.175Z,100235.72
2022-11-29T10:15:41.239Z,100229.00
2022-11-29T10:18:33.551Z,100236.28
2022-11-29T10:21:26.071Z,100234.59
2022-11-29T10:24:18.372Z,100184.88
2022-11-29T10:27:12.029Z,100222.63
2022-11-29T10:30:02.475Z,100231.13
2022-11-29T10:32:55.890Z,100229.63
2022-11-29T10:35:44.723Z,100233.97
2022-11-29T10:38:33.182Z,100230.28
2022-11-29T10:41:23.751Z,100227.44
2022-11-29T10:44:14.726Z,100237.94
2022-11-29T10:47:09.303Z,100236.53
2022-11-29T10:49:59.467Z,100234.41
2022-11-29T10:52:47.917Z,100235.44
2022-11-29T10:55:41.844Z,100235.06
2022-11-29T10:58:32.387Z,100213.59
2022-11-29T11:01:20.869Z,100223.53
2022-11-29T11:04:16.114Z,100225.22
2022-11-29T11:07:06.133Z,100226.88
2022-11-29T11:09:56.891Z,100221.53
2022-11-29T11:13:02.187Z,100225.28
2022-11-29T11:15:57.429Z,100226.31
2022-11-29T11:18:48.006Z,100081.19
2022-11-29T11:21:39.395Z,100226.56
2022-11-29T11:24:29.916Z,100218.53
2022-11-29T11:27:29.986Z,100215.84
2022-11-29T11:30:22.662Z,100220.81
2022-11-29T11:33:20.121Z,100225.38
2022-11-29T11:36:12.590Z,100228.47
2022-11-29T11:39:12.653Z,100233.00
2022-11-29T11:42:20.898Z,100229.50
2022-11-29T11:45:33.948Z,100232.00
2022-11-29T11:48:23.943Z,100223.13
2022-11-29T11:51:22.909Z,100231.34
2022-11-29T11:54:15.196Z,100236.13
2022-11-29T11:57:04.498Z,100240.91
2022-11-29T11:59:55.203Z,100232.03
2022-11-29T12:02:45.399Z,100245.22
2022-11-29T12:05:35.320Z,100246.16
2022-11-29T12:08:24.973Z,100243.47
2022-11-29T12:11:16.308Z,100222.28
2022-11-29T12:14:05.981Z,100253.22
2022-11-29T12:17:02.373Z,100248.88
2022-11-29T12:20:04.327Z,100255.91
2022-11-29T12:23:06.459Z,100254.69
2022-11-29T12:25:58.321Z,100256.53
2022-11-29T12:28:47.414Z,100261.69
2022-11-29T12:31:46.052Z,100241.19
2022-11-29T12:34:43.989Z,100249.25
2022-11-29T12:37:38.786Z,100256.78
2022-11-29T12:40:33.224Z,100261.94
2022-11-29T12:43:30.183Z,100264.63
2022-11-29T12:46:24.559Z,100260.72
2022-11-29T12:49:19.073Z,100269.84
2022-11-29T12:52:11.448Z,100284.06
2022-11-29T12:55:06.519Z,100262.09
2022-11-29T12:58:01.579Z,100264.09
2022-11-29T13:00:55.621Z,100264.19
2022-11-29T13:03:46.503Z,100254.63
2022-11-29T13:06:43.388Z,100270.88
2022-11-29T13:10:02.545Z,100266.03
2022-11-29T13:12:53.749Z,100273.03
2022-11-29T13:15:49.935Z,100272.25
2022-11-29T13:18:42.252Z,100278.13
2022-11-29T13:21:33.331Z,100279.03
2022-11-29T13:24:26.357Z,100277.56
2022-11-29T13:27:19.287Z,100277.69
2022-11-29T13:30:09.087Z,100253.16
2022-11-29T13:33:03.707Z,100283.53
2022-11-29T13:35:57.695Z,100280.25
2022-11-29T13:38:53.573Z,100273.41
2022-11-29T13:41:47.683Z,100270.16
2022-11-29T13:44:41.179Z,100266.41
2022-11-29T13:47:30.003Z,100278.00
2022-11-29T13:50:40.406Z,100281.31
2022-11-29T13:53:48.262Z,100257.69
2022-11-29T13:56:46.220Z,100291.25
2022-11-29T13:59:38.318Z,100290.25
2022-11-29T14:02:31.651Z,100290.44
2022-11-29T14:05:25.819Z,100289.47
2022-11-29T14:08:42.433Z,100290.63
2022-11-29T14:11:46.698Z,100283.34
2022-11-29T14:14:40.209Z,100294.31
2022-11-29T14:17:47.337Z,100256.53
2022-11-29T14:20:46.460Z,100295.53
2022-11-29T14:23:39.012Z,100298.59
2022-11-29T14:26:29.907Z,100274.69
2022-11-29T14:29:53.888Z,100304.75
2022-11-29T14:32:51.591Z,100298.31
2022-11-29T14:35:44.961Z,100293.91
2022-11-29T14:38:41.286Z,100295.97
2022-11-29T14:41:34.279Z,100285.50
2022-11-29T14:44:26.052Z,100305.38
2022-11-29T14:47:29.765Z,100306.41
2022-11-29T14:50:31.355Z,100300.78
2022-11-29T14:53:29.562Z,100305.38
2022-11-29T14:56:43.374Z,100314.81
2022-11-29T14:59:51.390Z,100318.50
2022-11-29T15:02:42.529Z,100318.50
2022-11-29T15:05:33.670Z,100294.84
2022-11-29T15:08:33.317Z,100319.06
2022-11-29T15:11:38.396Z,100329.56
2022-11-29T15:14:32.951Z,100329.56
2022-11-29T15:17:31.166Z,100330.19
2022-11-29T15:20:56.675Z,100335.31
2022-11-29T15:23:45.331Z,100318.91
2022-11-29T15:26:34.085Z,100344.72
2022-11-29T15:29:24.503Z,100334.66
2022-11-29T15:32:14.696Z,100332.09
2022-11-29T15:35:03.354Z,100321.13
2022-11-29T15:37:53.219Z,100350.69
2022-11-29T15:40:44.948Z,100337.50
2022-11-29T15:43:36.090Z,100349.22
2022-11-29T15:46:27.760Z,100348.38
2022-11-29T15:49:16.944Z,100356.41
2022-11-29T15:52:10.846Z,100343.88
2022-11-29T15:55:01.258Z,100356.41
2022-11-29T15:57:52.447Z,100358.91
2022-11-29T16:00:41.385Z,100363.78
2022-11-29T16:03:34.423Z,100357.72
2022-11-29T16:06:27.533Z,100367.59
2022-11-29T16:09:18.922Z,100372.47
2022-11-29T16:12:10.774Z,100363.69
2022-11-29T16:15:00.680Z,100358.84
2022-11-29T16:17:49.218Z,100370.16
2022-11-29T16:20:39.320Z,100360.47
2022-11-29T16:23:34.218Z,100373.66
2022-11-29T16:26:24.237Z,100325.41
2022-11-29T16:29:21.428Z,100352.66
2022-11-29T16:32:14.979Z,100366.38
2022-11-29T16:35:08.497Z,100365.13
2022-11-29T16:37:58.446Z,100376.53
2022-11-29T16:41:02.234Z,100385.59
2022-11-29T16:43:55.152Z,100382.00
2022-11-29T16:46:43.745Z,100375.25
2022-11-29T16:49:35.529Z,100383.28
2022-11-29T16:52:25.632Z,100390.28
2022-11-29T16:55:16.019Z,100389.06
2022-11-29T16:58:06.158Z,100382.81
2022-11-29T17:00:55.337Z,100370.72
2022-11-29T17:03:43.871Z,100388.63
2022-11-29T17:06:32.576Z,100392.28
2022-11-29T17:09:24.500Z,100397.00
2022-11-29T17:12:15.043Z,100391.47
2022-11-29T17:15:04.247Z,100388.78
2022-11-29T17:17:52.880Z,100403.06
2022-11-29T17:20:41.631Z,100384.66
2022-11-29T17:23:30.169Z,100391.38
2022-11-29T17:26:19.081Z,100289.88
2022-11-29T17:29:10.721Z,100387.34
2022-11-29T17:31:59.380Z,100402.81
2022-11-29T17:34:48.266Z,100402.19
2022-11-29T17:37:36.837Z,100405.66
2022-11-29T17:40:25.326Z,100394.34
2022-11-29T17:43:13.805Z,100411.47
2022-11-29T17:46:09.291Z,100414.34
2022-11-29T17:49:00.168Z,100411.19
2022-11-29T17:51:53.267Z,100403.28
2022-11-29T17:54:42.017Z,100279.09
2022-11-29T17:57:30.499Z,100410.19
2022-11-29T18:00:20.251Z,100413.88
2022-11-29T18:03:10.153Z,100418.22
2022-11-29T18:06:00.006Z,100419.88
2022-11-29T18:08:50.274Z,100419.88
2022-11-29T18:11:46.810Z,100426.88
2022-11-29T18:14:38.225Z,100430.94
2022-11-29T18:17:26.829Z,100432.41
2022-11-29T18:20:16.749Z,100432.59
2022-11-29T18:23:08.159Z,100433.44
2022-11-29T18:26:00.529Z,100432.97
2022-11-29T18:28:49.631Z,100421.88
2022-11-29T18:31:39.810Z,100433.97
2022-11-29T18:34:28.271Z,100434.63
2022-11-29T18:37:39.003Z,100406.88
2022-11-29T18:40:26.635Z,100435.47
2022-11-29T18:43:17.228Z,100425.88
2022-11-29T18:46:09.993Z,100440.53
2022-11-29T18:48:58.986Z,100329.75
2022-11-29T18:51:48.608Z,100444.50
2022-11-29T18:54:38.431Z,100441.63
2022-11-29T18:57:27.033Z,100434.53
2022-11-29T19:00:16.704Z,100440.16
2022-11-29T19:03:05.288Z,100444.97
2022-11-29T19:05:54.288Z,100447.81
2022-11-29T19:08:43.515Z,100429.53
2022-11-29T19:11:34.322Z,100411.66
2022-11-29T19:14:22.829Z,100444.84
2022-11-29T19:17:11.363Z,100452.88
2022-11-29T19:19:59.883Z,100447.72
2022-11-29T19:22:48.778Z,100450.19
2022-11-29T19:25:37.255Z,100445.69
2022-11-29T19:28:28.374Z,100454.38
2022-11-29T19:31:19.999Z,100424.19
2022-11-29T19:34:08.716Z,100463.31
2022-11-29T19:36:57.222Z,100463.75
2022-11-29T19:39:46.079Z,100428.53
2022-11-29T19:42:34.817Z,100456.66
2022-11-29T19:45:24.653Z,100470.59
2022-11-29T19:48:13.259Z,100470.78
2022-11-29T19:51:01.827Z,100468.91
2022-11-29T19:53:53.492Z,100467.94
2022-11-29T19:56:42.173Z,100459.91
2022-11-29T19:59:30.688Z,100470.59
2022-11-29T20:02:20.675Z,100469.22
2022-11-29T20:05:09.734Z,100465.25
2022-11-29T20:07:58.279Z,100468.09
2022-11-29T20:10:46.957Z,100466.25
2022-11-29T20:13:35.500Z,100461.91
2022-11-29T20:16:24.893Z,100428.38
2022-11-29T20:19:16.998Z,100454.91
2022-11-29T20:22:05.577Z,100471.22
2022-11-29T20:24:54.688Z,100478.25
2022-11-29T20:27:43.415Z,100474.09
2022-11-29T20:30:32.008Z,100446.69
2022-11-29T20:33:23.371Z,100475.75
2022-11-29T20:36:21.801Z,100471.31
2022-11-29T20:39:21.873Z,100481.38
2022-11-29T20:42:46.843Z,100472.31
2022-11-29T20:45:35.697Z,100468.47
2022-11-29T20:48:24.824Z,100486.03
2022-11-29T20:51:13.823Z,100457.53
2022-11-29T20:54:03.757Z,100499.72
2022-11-29T20:56:52.246Z,100486.53
2022-11-29T20:59:40.763Z,100502.56
2022-11-29T21:02:29.415Z,100494.06
2022-11-29T21:05:18.024Z,100492.41
2022-11-29T21:08:06.607Z,100493.06
2022-11-29T21:11:03.110Z,100500.63
2022-11-29T21:13:52.432Z,100487.72
2022-11-29T21:16:41.310Z,100505.13
2022-11-29T21:19:30.540Z,100510.66
2022-11-29T21:22:24.865Z,100504.00
2022-11-29T21:25:17.398Z,100505.97
2022-11-29T21:28:12.708Z,100509.31
2022-11-29T21:31:02.237Z,100509.66
2022-11-29T21:33:51.532Z,100496.34
2022-11-29T21:36:40.476Z,100474.94
2022-11-29T21:39:33.514Z,100490.19
2022-11-29T21:42:22.282Z,100494.88
2022-11-29T21:45:15.674Z,100491.72
2022-11-29T21:48:24.723Z,100480.66
2022-11-29T21:51:13.371Z,100500.94
2022-11-29T21:54:02.260Z,100498.47
2022-11-29T21:56:50.845Z,100505.19
2022-11-29T21:59:39.483Z,100499.53
2022-11-29T22:02:29.522Z,100507.38
2022-11-29T22:05:18.398Z,100498.22
2022-11-29T22:08:07.420Z,100505.38
2022-11-29T22:11:01.774Z,100486.75
2022-11-29T22:14:07.710Z,100483.78
2022-11-29T22:16:58.647Z,100518.56
2022-11-29T22:19:48.584Z,100500.56
2022-11-29T22:22:37.580Z,100520.78
2022-11-29T22:25:26.381Z,100517.44
2022-11-29T22:28:15.085Z,100519.28
2022-11-29T22:31:05.888Z,100515.13
2022-11-29T22:33:55.185Z,100518.81
2022-11-29T22:36:45.604Z,100481.50
2022-11-29T22:39:34.309Z,100506.56
2022-11-29T22:42:22.825Z,100518.22
2022-11-29T22:45:12.689Z,100522.72
2022-11-29T22:48:01.260Z,100492.44
2022-11-29T22:50:49.818Z,100498.72
2022-11-29T22:53:40.821Z,100518.22
2022-11-29T22:56:30.933Z,100514.22
2022-11-29T22:59:19.739Z,100512.75
2022-11-29T23:02:08.480Z,100511.81
2022-11-29T23:04:57.070Z,100514.13
2022-11-29T23:07:47.065Z,100513.63
2022-11-29T23:10:37.117Z,100516.47
2022-11-29T23:13:25.782Z,100508.66
2022-11-29T23:16:15.759Z,100516.03
2022-11-29T23:19:04.358Z,100514.53
2022-11-29T23:21:53.196Z,100514.69
2022-11-29T23:24:42.558Z,100499.38
2022-11-29T23:27:32.397Z,100514.41
2022-11-29T23:30:20.986Z,100510.44
2022-11-29T23:33:09.584Z,100512.44
2022-11-29T23:36:02.368Z,100513.28
2022-11-29T23:38:51.314Z,100481.69
2022-11-29T23:41:40.220Z,100508.13
2022-11-29T23:44:30.162Z,100508.13
2022-11-29T23:47:18.762Z,100504.59
2022-11-29T23:50:09.347Z,100511.59
2022-11-29T23:52:58.438Z,100506.84
2022-11-29T23:55:47.908Z,100515.13
2022-11-29T23:58:36.677Z,100517.78
